sensor_id;sensor_type;location;lat;lon;timestamp;P1;durP1;ratioP1;P2;durP2;ratioP2
13568;SDS011;6856;51.460;7.158;2023-12-04T00:00:15;11.00;;;8.43;;
13568;SDS011;6856;51.460;7.158;2023-12-04T00:02:49;10.80;;;8.27;;
13568;SDS011;6856;51.460;7.158;2023-12-04T00:05:23;11.53;;;8.60;;
13568;SDS011;6856;51.460;7.158;2023-12-04T00:07:59;11.23;;;8.37;;
13568;SDS011;6856;51.460;7.158;2023-12-04T00:10:33;10.53;;;8.17;;
13568;SDS011;6856;51.460;7.158;2023-12-04T00:13:06;9.40;;;7.83;;
13568;SDS011;6856;51.460;7.158;2023-12-04T00:15:39;10.10;;;8.70;;
13568;SDS011;6856;51.460;7.158;2023-12-04T00:18:13;10.30;;;8.47;;
13568;SDS011;6856;51.460;7.158;2023-12-04T00:20:47;10.17;;;8.30;;
13568;SDS011;6856;51.460;7.158;2023-12-04T00:23:22;11.57;;;8.73;;
13568;SDS011;6856;51.460;7.158;2023-12-04T00:25:56;9.40;;;8.10;;
13568;SDS011;6856;51.460;7.158;2023-12-04T00:28:30;9.40;;;7.67;;
13568;SDS011;6856;51.460;7.158;2023-12-04T00:31:05;11.37;;;8.83;;
13568;SDS011;6856;51.460;7.158;2023-12-04T00:33:39;9.30;;;7.90;;
13568;SDS011;6856;51.460;7.158;2023-12-04T00:36:13;9.33;;;7.57;;
13568;SDS011;6856;51.460;7.158;2023-12-04T00:38:48;9.93;;;7.33;;
13568;SDS011;6856;51.460;7.158;2023-12-04T00:41:22;9.03;;;7.57;;
13568;SDS011;6856;51.460;7.158;2023-12-04T00:43:55;8.73;;;7.17;;
13568;SDS011;6856;51.460;7.158;2023-12-04T00:46:29;9.27;;;7.83;;
13568;SDS011;6856;51.460;7.158;2023-12-04T00:49:03;8.93;;;7.50;;
13568;SDS011;6856;51.460;7.158;2023-12-04T00:51:37;9.30;;;7.57;;
13568;SDS011;6856;51.460;7.158;2023-12-04T00:54:13;9.27;;;7.83;;
13568;SDS011;6856;51.460;7.158;2023-12-04T00:56:47;8.40;;;7.33;;
13568;SDS011;6856;51.460;7.158;2023-12-04T00:59:21;9.07;;;7.47;;
13568;SDS011;6856;51.460;7.158;2023-12-04T01:01:55;8.93;;;7.70;;
13568;SDS011;6856;51.460;7.158;2023-12-04T01:04:28;7.93;;;6.97;;
13568;SDS011;6856;51.460;7.158;2023-12-04T01:07:03;8.63;;;7.00;;
13568;SDS011;6856;51.460;7.158;2023-12-04T01:09:39;9.27;;;7.13;;
13568;SDS011;6856;51.460;7.158;2023-12-04T01:12:13;8.37;;;7.07;;
13568;SDS011;6856;51.460;7.158;2023-12-04T01:14:47;9.17;;;7.27;;
13568;SDS011;6856;51.460;7.158;2023-12-04T01:17:20;7.47;;;6.27;;
13568;SDS011;6856;51.460;7.158;2023-12-04T01:19:54;10.83;;;7.57;;
13568;SDS011;6856;51.460;7.158;2023-12-04T01:22:29;8.80;;;7.03;;
13568;SDS011;6856;51.460;7.158;2023-12-04T01:25:04;8.63;;;6.50;;
13568;SDS011;6856;51.460;7.158;2023-12-04T01:27:41;7.93;;;6.87;;
13568;SDS011;6856;51.460;7.158;2023-12-04T01:30:16;9.03;;;7.27;;
13568;SDS011;6856;51.460;7.158;2023-12-04T01:32:50;7.03;;;5.63;;
13568;SDS011;6856;51.460;7.158;2023-12-04T01:35:24;7.87;;;6.10;;
13568;SDS011;6856;51.460;7.158;2023-12-04T01:37:58;8.10;;;6.47;;
13568;SDS011;6856;51.460;7.158;2023-12-04T01:40:33;8.93;;;6.77;;
13568;SDS011;6856;51.460;7.158;2023-12-04T01:43:07;8.63;;;7.03;;
13568;SDS011;6856;51.460;7.158;2023-12-04T01:45:41;8.27;;;6.50;;
13568;SDS011;6856;51.460;7.158;2023-12-04T01:48:14;7.90;;;6.40;;
13568;SDS011;6856;51.460;7.158;2023-12-04T01:50:49;8.70;;;6.77;;
13568;SDS011;6856;51.460;7.158;2023-12-04T01:53:24;8.77;;;6.57;;
13568;SDS011;6856;51.460;7.158;2023-12-04T01:55:59;7.20;;;5.90;;
13568;SDS011;6856;51.460;7.158;2023-12-04T01:58:33;7.03;;;5.70;;
13568;SDS011;6856;51.460;7.158;2023-12-04T02:01:07;7.13;;;5.97;;
13568;SDS011;6856;51.460;7.158;2023-12-04T02:03:42;8.43;;;6.63;;
13568;SDS011;6856;51.460;7.158;2023-12-04T02:06:16;7.43;;;6.20;;
13568;SDS011;6856;51.460;7.158;2023-12-04T02:08:51;7.73;;;6.43;;
13568;SDS011;6856;51.460;7.158;2023-12-04T02:11:27;7.07;;;5.80;;
13568;SDS011;6856;51.460;7.158;2023-12-04T02:14:01;7.27;;;5.90;;
13568;SDS011;6856;51.460;7.158;2023-12-04T02:16:36;7.13;;;5.73;;
13568;SDS011;6856;51.460;7.158;2023-12-04T02:19:14;8.13;;;5.83;;
13568;SDS011;6856;51.460;7.158;2023-12-04T02:21:48;7.03;;;5.80;;
13568;SDS011;6856;51.460;7.158;2023-12-04T02:24:23;8.20;;;6.13;;
13568;SDS011;6856;51.460;7.158;2023-12-04T02:26:59;7.33;;;6.00;;
13568;SDS011;6856;51.460;7.158;2023-12-04T02:29:46;7.43;;;5.50;;
13568;SDS011;6856;51.460;7.158;2023-12-04T02:32:26;6.17;;;5.20;;
13568;SDS011;6856;51.460;7.158;2023-12-04T02:35:04;6.30;;;5.57;;
13568;SDS011;6856;51.460;7.158;2023-12-04T02:37:41;7.23;;;5.40;;
13568;SDS011;6856;51.460;7.158;2023-12-04T02:40:17;8.60;;;5.80;;
13568;SDS011;6856;51.460;7.158;2023-12-04T02:42:51;8.00;;;6.27;;
13568;SDS011;6856;51.460;7.158;2023-12-04T02:45:25;7.53;;;6.07;;
13568;SDS011;6856;51.460;7.158;2023-12-04T02:48:00;7.73;;;5.43;;
13568;SDS011;6856;51.460;7.158;2023-12-04T02:50:34;7.17;;;5.53;;
13568;SDS011;6856;51.460;7.158;2023-12-04T02:53:07;7.20;;;4.97;;
13568;SDS011;6856;51.460;7.158;2023-12-04T02:55:42;6.33;;;5.00;;
13568;SDS011;6856;51.460;7.158;2023-12-04T02:58:16;6.97;;;4.87;;
13568;SDS011;6856;51.460;7.158;2023-12-04T03:00:50;6.53;;;5.17;;
13568;SDS011;6856;51.460;7.158;2023-12-04T03:03:24;5.90;;;4.83;;
13568;SDS011;6856;51.460;7.158;2023-12-04T03:05:58;6.50;;;5.10;;
13568;SDS011;6856;51.460;7.158;2023-12-04T03:08:31;5.93;;;5.03;;
13568;SDS011;6856;51.460;7.158;2023-12-04T03:11:07;7.00;;;5.20;;
13568;SDS011;6856;51.460;7.158;2023-12-04T03:13:41;6.20;;;5.03;;
13568;SDS011;6856;51.460;7.158;2023-12-04T03:16:15;7.17;;;5.23;;
13568;SDS011;6856;51.460;7.158;2023-12-04T03:18:49;7.27;;;5.10;;
13568;SDS011;6856;51.460;7.158;2023-12-04T03:21:23;6.33;;;4.60;;
13568;SDS011;6856;51.460;7.158;2023-12-04T03:23:57;5.43;;;4.30;;
13568;SDS011;6856;51.460;7.158;2023-12-04T03:26:33;5.80;;;4.70;;
13568;SDS011;6856;51.460;7.158;2023-12-04T03:29:07;6.70;;;4.97;;
13568;SDS011;6856;51.460;7.158;2023-12-04T03:31:41;7.00;;;5.23;;
13568;SDS011;6856;51.460;7.158;2023-12-04T03:34:14;7.03;;;5.30;;
13568;SDS011;6856;51.460;7.158;2023-12-04T03:36:48;7.60;;;5.03;;
13568;SDS011;6856;51.460;7.158;2023-12-04T03:39:22;6.13;;;4.83;;
13568;SDS011;6856;51.460;7.158;2023-12-04T03:41:57;5.70;;;4.60;;
13568;SDS011;6856;51.460;7.158;2023-12-04T03:44:30;6.67;;;5.13;;
13568;SDS011;6856;51.460;7.158;2023-12-04T03:47:04;5.80;;;4.77;;
13568;SDS011;6856;51.460;7.158;2023-12-04T03:49:38;5.47;;;4.40;;
13568;SDS011;6856;51.460;7.158;2023-12-04T03:52:12;6.10;;;4.90;;
13568;SDS011;6856;51.460;7.158;2023-12-04T03:54:46;6.60;;;4.90;;
13568;SDS011;6856;51.460;7.158;2023-12-04T03:57:22;5.43;;;4.33;;
13568;SDS011;6856;51.460;7.158;2023-12-04T03:59:55;5.70;;;4.53;;
13568;SDS011;6856;51.460;7.158;2023-12-04T04:02:29;6.10;;;4.67;;
13568;SDS011;6856;51.460;7.158;2023-12-04T04:05:04;5.27;;;4.17;;
13568;SDS011;6856;51.460;7.158;2023-12-04T04:07:40;5.87;;;4.57;;
13568;SDS011;6856;51.460;7.158;2023-12-04T04:10:14;6.50;;;4.60;;
13568;SDS011;6856;51.460;7.158;2023-12-04T04:12:49;5.60;;;4.10;;
13568;SDS011;6856;51.460;7.158;2023-12-04T04:15:23;5.60;;;4.53;;
13568;SDS011;6856;51.460;7.158;2023-12-04T04:17:59;5.93;;;4.37;;
13568;SDS011;6856;51.460;7.158;2023-12-04T04:20:33;5.70;;;4.27;;
13568;SDS011;6856;51.460;7.158;2023-12-04T04:23:07;5.97;;;4.60;;
13568;SDS011;6856;51.460;7.158;2023-12-04T04:25:41;5.60;;;4.17;;
13568;SDS011;6856;51.460;7.158;2023-12-04T04:28:17;5.13;;;4.10;;
13568;SDS011;6856;51.460;7.158;2023-12-04T04:30:50;4.77;;;3.73;;
13568;SDS011;6856;51.460;7.158;2023-12-04T04:33:25;5.60;;;4.00;;
13568;SDS011;6856;51.460;7.158;2023-12-04T04:35:59;6.07;;;4.40;;
13568;SDS011;6856;51.460;7.158;2023-12-04T04:38:33;5.43;;;4.30;;
13568;SDS011;6856;51.460;7.158;2023-12-04T04:41:06;5.83;;;4.40;;
13568;SDS011;6856;51.460;7.158;2023-12-04T04:43:47;5.43;;;4.23;;
13568;SDS011;6856;51.460;7.158;2023-12-04T04:46:20;5.93;;;4.43;;
13568;SDS011;6856;51.460;7.158;2023-12-04T04:48:54;5.67;;;3.67;;
13568;SDS011;6856;51.460;7.158;2023-12-04T04:51:27;5.27;;;3.93;;
13568;SDS011;6856;51.460;7.158;2023-12-04T04:54:02;4.67;;;3.70;;
13568;SDS011;6856;51.460;7.158;2023-12-04T04:56:36;5.77;;;4.07;;
13568;SDS011;6856;51.460;7.158;2023-12-04T04:59:11;5.37;;;3.67;;
13568;SDS011;6856;51.460;7.158;2023-12-04T05:01:45;6.43;;;4.53;;
13568;SDS011;6856;51.460;7.158;2023-12-04T05:04:18;5.77;;;4.00;;
13568;SDS011;6856;51.460;7.158;2023-12-04T05:06:54;4.63;;;3.50;;
13568;SDS011;6856;51.460;7.158;2023-12-04T05:09:27;5.53;;;4.03;;
13568;SDS011;6856;51.460;7.158;2023-12-04T05:12:02;5.93;;;4.70;;
13568;SDS011;6856;51.460;7.158;2023-12-04T05:14:38;5.40;;;4.33;;
13568;SDS011;6856;51.460;7.158;2023-12-04T05:17:12;5.03;;;4.07;;
13568;SDS011;6856;51.460;7.158;2023-12-04T05:19:46;5.67;;;4.40;;
13568;SDS011;6856;51.460;7.158;2023-12-04T05:22:21;6.77;;;4.60;;
13568;SDS011;6856;51.460;7.158;2023-12-04T05:24:54;5.17;;;4.13;;
13568;SDS011;6856;51.460;7.158;2023-12-04T05:27:28;5.73;;;4.37;;
13568;SDS011;6856;51.460;7.158;2023-12-04T05:30:05;5.43;;;4.13;;
13568;SDS011;6856;51.460;7.158;2023-12-04T05:32:42;5.60;;;4.70;;
13568;SDS011;6856;51.460;7.158;2023-12-04T05:35:16;6.30;;;4.77;;
13568;SDS011;6856;51.460;7.158;2023-12-04T05:37:50;6.70;;;4.63;;
13568;SDS011;6856;51.460;7.158;2023-12-04T05:40:24;5.43;;;4.17;;
13568;SDS011;6856;51.460;7.158;2023-12-04T05:42:58;6.47;;;4.77;;
13568;SDS011;6856;51.460;7.158;2023-12-04T05:45:33;6.00;;;4.60;;
13568;SDS011;6856;51.460;7.158;2023-12-04T05:48:07;5.83;;;4.27;;
13568;SDS011;6856;51.460;7.158;2023-12-04T05:50:41;6.50;;;4.87;;
13568;SDS011;6856;51.460;7.158;2023-12-04T05:53:14;5.90;;;4.60;;
13568;SDS011;6856;51.460;7.158;2023-12-04T05:55:49;6.50;;;5.00;;
13568;SDS011;6856;51.460;7.158;2023-12-04T05:58:23;7.30;;;4.90;;
13568;SDS011;6856;51.460;7.158;2023-12-04T06:00:58;5.70;;;4.73;;
13568;SDS011;6856;51.460;7.158;2023-12-04T06:03:32;5.73;;;4.57;;
13568;SDS011;6856;51.460;7.158;2023-12-04T06:06:06;6.43;;;4.50;;
13568;SDS011;6856;51.460;7.158;2023-12-04T06:08:43;6.60;;;4.33;;
13568;SDS011;6856;51.460;7.158;2023-12-04T06:11:18;6.17;;;4.77;;
13568;SDS011;6856;51.460;7.158;2023-12-04T06:13:51;6.63;;;5.23;;
13568;SDS011;6856;51.460;7.158;2023-12-04T06:16:26;5.57;;;4.53;;
13568;SDS011;6856;51.460;7.158;2023-12-04T06:19:01;6.43;;;4.93;;
13568;SDS011;6856;51.460;7.158;2023-12-04T06:21:35;6.23;;;4.70;;
13568;SDS011;6856;51.460;7.158;2023-12-04T06:24:10;4.80;;;4.30;;
13568;SDS011;6856;51.460;7.158;2023-12-04T06:26:46;6.37;;;5.23;;
13568;SDS011;6856;51.460;7.158;2023-12-04T06:29:24;5.53;;;4.43;;
13568;SDS011;6856;51.460;7.158;2023-12-04T06:32:01;7.03;;;5.20;;
13568;SDS011;6856;51.460;7.158;2023-12-04T06:34:37;6.90;;;5.27;;
13568;SDS011;6856;51.460;7.158;2023-12-04T06:37:12;6.57;;;5.07;;
13568;SDS011;6856;51.460;7.158;2023-12-04T06:39:47;6.33;;;4.87;;
13568;SDS011;6856;51.460;7.158;2023-12-04T06:42:25;5.37;;;4.40;;
13568;SDS011;6856;51.460;7.158;2023-12-04T06:44:59;6.20;;;4.87;;
13568;SDS011;6856;51.460;7.158;2023-12-04T06:47:35;6.60;;;4.93;;
13568;SDS011;6856;51.460;7.158;2023-12-04T06:50:13;5.80;;;4.50;;
13568;SDS011;6856;51.460;7.158;2023-12-04T06:52:47;6.17;;;4.90;;
13568;SDS011;6856;51.460;7.158;2023-12-04T06:55:21;6.17;;;4.70;;
13568;SDS011;6856;51.460;7.158;2023-12-04T06:57:55;6.33;;;5.10;;
13568;SDS011;6856;51.460;7.158;2023-12-04T07:00:29;6.37;;;4.67;;
13568;SDS011;6856;51.460;7.158;2023-12-04T07:03:05;6.47;;;4.60;;
13568;SDS011;6856;51.460;7.158;2023-12-04T07:05:39;5.97;;;4.60;;
13568;SDS011;6856;51.460;7.158;2023-12-04T07:08:13;6.47;;;4.73;;
13568;SDS011;6856;51.460;7.158;2023-12-04T07:10:53;5.23;;;4.27;;
13568;SDS011;6856;51.460;7.158;2023-12-04T07:13:29;5.33;;;4.37;;
13568;SDS011;6856;51.460;7.158;2023-12-04T07:16:04;6.17;;;4.70;;
13568;SDS011;6856;51.460;7.158;2023-12-04T07:18:43;6.07;;;4.73;;
13568;SDS011;6856;51.460;7.158;2023-12-04T07:21:17;6.27;;;4.57;;
13568;SDS011;6856;51.460;7.158;2023-12-04T07:23:51;5.50;;;4.13;;
13568;SDS011;6856;51.460;7.158;2023-12-04T07:26:25;5.97;;;4.53;;
13568;SDS011;6856;51.460;7.158;2023-12-04T07:28:59;6.20;;;4.97;;
13568;SDS011;6856;51.460;7.158;2023-12-04T07:31:33;7.07;;;4.90;;
13568;SDS011;6856;51.460;7.158;2023-12-04T07:34:08;5.37;;;4.27;;
13568;SDS011;6856;51.460;7.158;2023-12-04T07:41:11;4.87;;;3.60;;
13568;SDS011;6856;51.460;7.158;2023-12-04T07:43:47;5.70;;;4.27;;
13568;SDS011;6856;51.460;7.158;2023-12-04T07:46:21;6.67;;;4.37;;
13568;SDS011;6856;51.460;7.158;2023-12-04T07:48:54;5.30;;;4.13;;
13568;SDS011;6856;51.460;7.158;2023-12-04T07:51:30;4.83;;;4.00;;
13568;SDS011;6856;51.460;7.158;2023-12-04T07:54:04;4.83;;;3.87;;
13568;SDS011;6856;51.460;7.158;2023-12-04T07:56:37;6.03;;;4.20;;
13568;SDS011;6856;51.460;7.158;2023-12-04T07:59:14;4.73;;;4.07;;
13568;SDS011;6856;51.460;7.158;2023-12-04T08:01:47;5.13;;;3.97;;
13568;SDS011;6856;51.460;7.158;2023-12-04T08:04:21;5.57;;;3.93;;
13568;SDS011;6856;51.460;7.158;2023-12-04T08:06:56;5.40;;;4.03;;
13568;SDS011;6856;51.460;7.158;2023-12-04T08:09:30;5.43;;;4.17;;
13568;SDS011;6856;51.460;7.158;2023-12-04T09:44:11;3.80;;;2.20;;
13568;SDS011;6856;51.460;7.158;2023-12-04T09:46:47;3.60;;;2.40;;
13568;SDS011;6856;51.460;7.158;2023-12-04T09:49:23;4.10;;;2.97;;
13568;SDS011;6856;51.460;7.158;2023-12-04T09:52:03;4.87;;;3.00;;
13568;SDS011;6856;51.460;7.158;2023-12-04T09:54:38;4.80;;;3.53;;
13568;SDS011;6856;51.460;7.158;2023-12-04T09:57:14;4.73;;;3.87;;
13568;SDS011;6856;51.460;7.158;2023-12-04T09:59:52;4.53;;;3.30;;
13568;SDS011;6856;51.460;7.158;2023-12-04T10:02:26;4.70;;;3.33;;
13568;SDS011;6856;51.460;7.158;2023-12-04T10:05:01;4.33;;;3.33;;
13568;SDS011;6856;51.460;7.158;2023-12-04T10:07:39;3.93;;;3.00;;
13568;SDS011;6856;51.460;7.158;2023-12-04T10:10:13;3.93;;;3.07;;
13568;SDS011;6856;51.460;7.158;2023-12-04T10:12:46;4.13;;;2.93;;
13568;SDS011;6856;51.460;7.158;2023-12-04T10:15:22;3.97;;;3.07;;
13568;SDS011;6856;51.460;7.158;2023-12-04T10:17:55;3.93;;;3.03;;
13568;SDS011;6856;51.460;7.158;2023-12-04T10:20:31;4.57;;;3.37;;
13568;SDS011;6856;51.460;7.158;2023-12-04T10:23:06;4.03;;;3.23;;
13568;SDS011;6856;51.460;7.158;2023-12-04T10:25:39;5.07;;;3.50;;
13568;SDS011;6856;51.460;7.158;2023-12-04T10:28:15;5.00;;;3.37;;
13568;SDS011;6856;51.460;7.158;2023-12-04T10:30:50;5.30;;;3.73;;
13568;SDS011;6856;51.460;7.158;2023-12-04T10:33:26;4.53;;;3.50;;
13568;SDS011;6856;51.460;7.158;2023-12-04T10:36:04;4.60;;;3.23;;
13568;SDS011;6856;51.460;7.158;2023-12-04T10:38:44;4.13;;;3.37;;
13568;SDS011;6856;51.460;7.158;2023-12-04T10:41:18;4.40;;;3.33;;
13568;SDS011;6856;51.460;7.158;2023-12-04T10:43:53;5.23;;;3.83;;
13568;SDS011;6856;51.460;7.158;2023-12-04T10:46:42;4.50;;;3.30;;
13568;SDS011;6856;51.460;7.158;2023-12-04T10:49:18;4.60;;;3.47;;
13568;SDS011;6856;51.460;7.158;2023-12-04T10:51:55;4.70;;;3.67;;
13568;SDS011;6856;51.460;7.158;2023-12-04T10:54:31;5.90;;;4.40;;
13568;SDS011;6856;51.460;7.158;2023-12-04T10:57:04;5.30;;;3.63;;
13568;SDS011;6856;51.460;7.158;2023-12-04T10:59:40;4.63;;;3.73;;
13568;SDS011;6856;51.460;7.158;2023-12-04T11:02:18;5.23;;;4.30;;
13568;SDS011;6856;51.460;7.158;2023-12-04T11:04:58;7.70;;;4.30;;
13568;SDS011;6856;51.460;7.158;2023-12-04T11:07:47;5.67;;;4.30;;
13568;SDS011;6856;51.460;7.158;2023-12-04T11:10:48;5.93;;;4.60;;
13568;SDS011;6856;51.460;7.158;2023-12-04T11:13:32;6.50;;;4.27;;
13568;SDS011;6856;51.460;7.158;2023-12-04T11:16:09;5.97;;;4.30;;
13568;SDS011;6856;51.460;7.158;2023-12-04T11:18:56;6.33;;;4.67;;
13568;SDS011;6856;51.460;7.158;2023-12-04T11:21:39;4.77;;;4.07;;
13568;SDS011;6856;51.460;7.158;2023-12-04T11:24:14;5.40;;;4.47;;
13568;SDS011;6856;51.460;7.158;2023-12-04T11:26:51;6.10;;;4.20;;
13568;SDS011;6856;51.460;7.158;2023-12-04T11:29:27;6.13;;;4.27;;
13568;SDS011;6856;51.460;7.158;2023-12-04T12:51:12;7.53;;;4.70;;
13568;SDS011;6856;51.460;7.158;2023-12-04T12:53:47;5.30;;;3.93;;
13568;SDS011;6856;51.460;7.158;2023-12-04T12:56:23;7.80;;;5.20;;
13568;SDS011;6856;51.460;7.158;2023-12-04T12:58:59;6.70;;;5.30;;
13568;SDS011;6856;51.460;7.158;2023-12-04T13:01:33;5.47;;;4.23;;
13568;SDS011;6856;51.460;7.158;2023-12-04T13:04:07;5.97;;;4.97;;
13568;SDS011;6856;51.460;7.158;2023-12-04T13:06:43;7.40;;;4.73;;
13568;SDS011;6856;51.460;7.158;2023-12-04T13:09:18;7.07;;;5.00;;
13568;SDS011;6856;51.460;7.158;2023-12-04T13:11:53;5.27;;;4.27;;
13568;SDS011;6856;51.460;7.158;2023-12-04T13:14:28;6.37;;;4.83;;
13568;SDS011;6856;51.460;7.158;2023-12-04T13:17:01;5.50;;;4.40;;
13568;SDS011;6856;51.460;7.158;2023-12-04T13:19:36;6.03;;;4.90;;
13568;SDS011;6856;51.460;7.158;2023-12-04T13:22:12;5.93;;;4.50;;
13568;SDS011;6856;51.460;7.158;2023-12-04T13:24:46;5.53;;;4.00;;
13568;SDS011;6856;51.460;7.158;2023-12-04T13:27:19;5.33;;;4.10;;
13568;SDS011;6856;51.460;7.158;2023-12-04T13:29:53;6.93;;;4.90;;
13568;SDS011;6856;51.460;7.158;2023-12-04T13:32:27;5.40;;;4.17;;
13568;SDS011;6856;51.460;7.158;2023-12-04T13:35:01;6.20;;;4.97;;
13568;SDS011;6856;51.460;7.158;2023-12-04T13:37:37;6.10;;;4.80;;
13568;SDS011;6856;51.460;7.158;2023-12-04T13:40:12;5.00;;;3.80;;
13568;SDS011;6856;51.460;7.158;2023-12-04T13:42:48;6.47;;;4.90;;
13568;SDS011;6856;51.460;7.158;2023-12-04T13:45:39;6.00;;;4.23;;
13568;SDS011;6856;51.460;7.158;2023-12-04T13:48:13;6.03;;;4.60;;
13568;SDS011;6856;51.460;7.158;2023-12-04T13:50:48;5.03;;;3.90;;
13568;SDS011;6856;51.460;7.158;2023-12-04T13:53:24;5.60;;;4.20;;
13568;SDS011;6856;51.460;7.158;2023-12-04T13:56:03;5.27;;;4.00;;
13568;SDS011;6856;51.460;7.158;2023-12-04T13:58:57;5.30;;;4.20;;
13568;SDS011;6856;51.460;7.158;2023-12-04T14:01:33;5.27;;;4.47;;
13568;SDS011;6856;51.460;7.158;2023-12-04T14:04:14;5.17;;;4.23;;
13568;SDS011;6856;51.460;7.158;2023-12-04T14:06:48;5.80;;;3.77;;
13568;SDS011;6856;51.460;7.158;2023-12-04T14:09:25;5.77;;;4.30;;
13568;SDS011;6856;51.460;7.158;2023-12-04T14:11:59;5.77;;;4.37;;
13568;SDS011;6856;51.460;7.158;2023-12-04T14:14:33;5.20;;;3.90;;
13568;SDS011;6856;51.460;7.158;2023-12-04T14:17:09;5.07;;;4.13;;
13568;SDS011;6856;51.460;7.158;2023-12-04T14:19:43;4.80;;;3.57;;
13568;SDS011;6856;51.460;7.158;2023-12-04T14:22:17;5.30;;;4.37;;
13568;SDS011;6856;51.460;7.158;2023-12-04T14:24:52;6.70;;;4.03;;
13568;SDS011;6856;51.460;7.158;2023-12-04T14:27:27;5.07;;;4.00;;
13568;SDS011;6856;51.460;7.158;2023-12-04T14:30:00;4.53;;;3.53;;
13568;SDS011;6856;51.460;7.158;2023-12-04T14:32:35;5.10;;;3.57;;
13568;SDS011;6856;51.460;7.158;2023-12-04T14:35:18;4.20;;;3.07;;
13568;SDS011;6856;51.460;7.158;2023-12-04T14:37:52;4.23;;;3.53;;
13568;SDS011;6856;51.460;7.158;2023-12-04T14:40:29;4.93;;;3.80;;
13568;SDS011;6856;51.460;7.158;2023-12-04T14:43:03;5.23;;;3.87;;
13568;SDS011;6856;51.460;7.158;2023-12-04T14:45:41;4.87;;;3.33;;
13568;SDS011;6856;51.460;7.158;2023-12-04T14:48:16;5.30;;;3.70;;
13568;SDS011;6856;51.460;7.158;2023-12-04T14:50:50;4.90;;;3.80;;
13568;SDS011;6856;51.460;7.158;2023-12-04T14:53:24;5.47;;;3.60;;
13568;SDS011;6856;51.460;7.158;2023-12-04T14:56:06;4.07;;;3.00;;
13568;SDS011;6856;51.460;7.158;2023-12-04T14:58:56;3.67;;;3.03;;
13568;SDS011;6856;51.460;7.158;2023-12-04T15:01:49;4.33;;;3.13;;
13568;SDS011;6856;51.460;7.158;2023-12-04T15:04:42;3.90;;;2.93;;
13568;SDS011;6856;51.460;7.158;2023-12-04T15:07:34;5.13;;;3.67;;
13568;SDS011;6856;51.460;7.158;2023-12-04T15:10:26;3.80;;;2.77;;
13568;SDS011;6856;51.460;7.158;2023-12-04T15:13:26;4.77;;;3.30;;
13568;SDS011;6856;51.460;7.158;2023-12-04T15:16:27;4.17;;;2.73;;
13568;SDS011;6856;51.460;7.158;2023-12-04T15:19:14;3.63;;;2.97;;
13568;SDS011;6856;51.460;7.158;2023-12-04T15:22:07;3.13;;;2.80;;
13568;SDS011;6856;51.460;7.158;2023-12-04T15:24:41;3.67;;;2.60;;
13568;SDS011;6856;51.460;7.158;2023-12-04T15:27:16;4.10;;;3.30;;
13568;SDS011;6856;51.460;7.158;2023-12-04T15:29:52;4.63;;;3.10;;
13568;SDS011;6856;51.460;7.158;2023-12-04T15:32:26;3.70;;;3.00;;
13568;SDS011;6856;51.460;7.158;2023-12-04T15:34:58;3.93;;;2.87;;
13568;SDS011;6856;51.460;7.158;2023-12-04T15:37:34;4.13;;;3.07;;
13568;SDS011;6856;51.460;7.158;2023-12-04T15:40:08;5.67;;;4.10;;
13568;SDS011;6856;51.460;7.158;2023-12-04T15:42:43;5.03;;;3.87;;
13568;SDS011;6856;51.460;7.158;2023-12-04T15:45:17;4.67;;;3.83;;
13568;SDS011;6856;51.460;7.158;2023-12-04T15:47:51;3.80;;;3.37;;
13568;SDS011;6856;51.460;7.158;2023-12-04T15:50:25;4.40;;;3.33;;
13568;SDS011;6856;51.460;7.158;2023-12-04T15:52:59;4.47;;;3.03;;
13568;SDS011;6856;51.460;7.158;2023-12-04T15:55:33;3.93;;;3.20;;
13568;SDS011;6856;51.460;7.158;2023-12-04T15:58:05;3.90;;;3.20;;
13568;SDS011;6856;51.460;7.158;2023-12-04T16:00:41;4.63;;;3.50;;
13568;SDS011;6856;51.460;7.158;2023-12-04T16:03:15;4.17;;;3.17;;
13568;SDS011;6856;51.460;7.158;2023-12-04T16:05:48;4.17;;;3.30;;
13568;SDS011;6856;51.460;7.158;2023-12-04T16:08:22;5.17;;;3.50;;
13568;SDS011;6856;51.460;7.158;2023-12-04T16:10:56;4.93;;;3.30;;
13568;SDS011;6856;51.460;7.158;2023-12-04T16:13:30;4.53;;;3.47;;
13568;SDS011;6856;51.460;7.158;2023-12-04T16:16:06;4.20;;;3.30;;
13568;SDS011;6856;51.460;7.158;2023-12-04T16:18:40;4.00;;;2.97;;
13568;SDS011;6856;51.460;7.158;2023-12-04T16:21:14;4.47;;;3.23;;
13568;SDS011;6856;51.460;7.158;2023-12-04T16:23:47;4.37;;;3.23;;
13568;SDS011;6856;51.460;7.158;2023-12-04T16:26:23;4.07;;;3.07;;
13568;SDS011;6856;51.460;7.158;2023-12-04T16:28:57;5.20;;;3.73;;
13568;SDS011;6856;51.460;7.158;2023-12-04T16:31:34;4.77;;;3.40;;
13568;SDS011;6856;51.460;7.158;2023-12-04T16:34:08;4.23;;;3.00;;
13568;SDS011;6856;51.460;7.158;2023-12-04T16:36:42;3.97;;;3.30;;
13568;SDS011;6856;51.460;7.158;2023-12-04T16:39:17;4.07;;;3.10;;
13568;SDS011;6856;51.460;7.158;2023-12-04T16:41:51;4.43;;;3.37;;
13568;SDS011;6856;51.460;7.158;2023-12-04T16:44:25;4.13;;;3.20;;
13568;SDS011;6856;51.460;7.158;2023-12-04T16:47:02;4.57;;;3.60;;
13568;SDS011;6856;51.460;7.158;2023-12-04T16:49:35;4.70;;;3.67;;
13568;SDS011;6856;51.460;7.158;2023-12-04T16:52:09;5.27;;;3.77;;
13568;SDS011;6856;51.460;7.158;2023-12-04T16:54:47;3.33;;;2.67;;
13568;SDS011;6856;51.460;7.158;2023-12-04T16:57:23;4.20;;;3.30;;
13568;SDS011;6856;51.460;7.158;2023-12-04T16:59:57;4.03;;;2.93;;
13568;SDS011;6856;51.460;7.158;2023-12-04T17:02:32;3.77;;;3.13;;
13568;SDS011;6856;51.460;7.158;2023-12-04T17:05:06;4.30;;;3.43;;
13568;SDS011;6856;51.460;7.158;2023-12-04T17:07:40;4.40;;;3.17;;
13568;SDS011;6856;51.460;7.158;2023-12-04T17:10:15;3.80;;;3.07;;
13568;SDS011;6856;51.460;7.158;2023-12-04T17:12:50;4.10;;;3.50;;
13568;SDS011;6856;51.460;7.158;2023-12-04T17:15:24;3.53;;;3.13;;
13568;SDS011;6856;51.460;7.158;2023-12-04T17:17:59;4.67;;;3.60;;
13568;SDS011;6856;51.460;7.158;2023-12-04T17:20:33;4.53;;;3.53;;
13568;SDS011;6856;51.460;7.158;2023-12-04T17:23:07;4.40;;;3.47;;
13568;SDS011;6856;51.460;7.158;2023-12-04T17:25:41;5.40;;;3.70;;
13568;SDS011;6856;51.460;7.158;2023-12-04T17:28:14;4.27;;;3.43;;
13568;SDS011;6856;51.460;7.158;2023-12-04T17:30:51;5.37;;;4.20;;
13568;SDS011;6856;51.460;7.158;2023-12-04T17:33:26;4.73;;;3.53;;
13568;SDS011;6856;51.460;7.158;2023-12-04T17:36:00;4.33;;;3.50;;
13568;SDS011;6856;51.460;7.158;2023-12-04T17:38:35;5.30;;;3.90;;
13568;SDS011;6856;51.460;7.158;2023-12-04T17:41:09;4.87;;;3.67;;
13568;SDS011;6856;51.460;7.158;2023-12-04T17:43:44;4.23;;;3.53;;
13568;SDS011;6856;51.460;7.158;2023-12-04T17:46:18;4.43;;;3.33;;
13568;SDS011;6856;51.460;7.158;2023-12-04T17:48:54;5.00;;;3.67;;
13568;SDS011;6856;51.460;7.158;2023-12-04T17:51:29;4.50;;;3.47;;
13568;SDS011;6856;51.460;7.158;2023-12-04T17:54:03;4.50;;;3.80;;
13568;SDS011;6856;51.460;7.158;2023-12-04T17:56:37;4.60;;;3.70;;
13568;SDS011;6856;51.460;7.158;2023-12-04T17:59:11;5.97;;;4.23;;
13568;SDS011;6856;51.460;7.158;2023-12-04T18:01:46;4.83;;;3.60;;
13568;SDS011;6856;51.460;7.158;2023-12-04T18:04:21;4.23;;;3.30;;
13568;SDS011;6856;51.460;7.158;2023-12-04T18:06:56;4.40;;;3.47;;
13568;SDS011;6856;51.460;7.158;2023-12-04T18:09:34;5.67;;;4.17;;
13568;SDS011;6856;51.460;7.158;2023-12-04T18:12:10;4.80;;;4.03;;
13568;SDS011;6856;51.460;7.158;2023-12-04T18:14:43;4.77;;;3.93;;
13568;SDS011;6856;51.460;7.158;2023-12-04T18:17:17;4.30;;;3.27;;
13568;SDS011;6856;51.460;7.158;2023-12-04T18:19:55;3.90;;;2.97;;
13568;SDS011;6856;51.460;7.158;2023-12-04T18:22:29;4.07;;;3.50;;
13568;SDS011;6856;51.460;7.158;2023-12-04T18:25:04;3.70;;;3.27;;
13568;SDS011;6856;51.460;7.158;2023-12-04T18:27:39;4.20;;;3.00;;
13568;SDS011;6856;51.460;7.158;2023-12-04T18:30:15;4.40;;;3.30;;
13568;SDS011;6856;51.460;7.158;2023-12-04T18:32:51;4.03;;;3.43;;
13568;SDS011;6856;51.460;7.158;2023-12-04T18:35:27;3.53;;;2.90;;
13568;SDS011;6856;51.460;7.158;2023-12-04T18:38:09;4.90;;;3.30;;
13568;SDS011;6856;51.460;7.158;2023-12-04T18:40:48;4.37;;;3.67;;
13568;SDS011;6856;51.460;7.158;2023-12-04T18:43:23;3.90;;;3.13;;
13568;SDS011;6856;51.460;7.158;2023-12-04T18:45:58;4.17;;;3.00;;